Time;durP1;ratioP1;P1;durP2;ratioP2;P2;SDS_P1;SDS_P2;PMS_P1;PMS_P2;Temp;Humidity;BMP_temperature;BMP_pressure;BME280_temperature;BME280_humidity;BME280_pressure;Samples;Min_cycle;Max_cycle;Signal;HPM_P1;HPM_P2
2023/12/12 00:02:42;;;;;;;3.72;1.80;;;22.80;73.90;;;;;;6216805;28;94954;-60
2023/12/12 00:05:44;;;;;;;3.05;1.63;;;22.70;73.80;;;;;;6227982;28;94456;-60
2023/12/12 00:08:46;;;;;;;1.92;1.40;;;22.70;73.70;;;;;;6236631;28;95224;-60
2023/12/12 00:11:48;;;;;;;3.45;1.50;;;22.80;73.80;;;;;;6234960;28;94586;-60
2023/12/12 00:14:50;;;;;;;2.90;1.70;;;22.70;73.70;;;;;;6232630;28;94027;-61
2023/12/12 00:17:53;;;;;;;3.50;1.70;;;22.70;73.70;;;;;;6222471;28;94148;-61
2023/12/12 00:20:55;;;;;;;3.15;1.85;;;22.70;73.60;;;;;;6240559;28;94104;-61
2023/12/12 00:23:57;;;;;;;2.22;1.55;;;22.70;73.50;;;;;;6218654;28;93066;-60
2023/12/12 00:26:59;;;;;;;4.15;1.63;;;22.70;73.50;;;;;;6231998;28;94235;-61
2023/12/12 00:30:01;;;;;;;4.15;1.90;;;22.70;73.80;;;;;;6240617;28;93395;-60
2023/12/12 00:33:04;;;;;;;2.15;1.33;;;22.60;73.70;;;;;;6221473;28;94140;-60
2023/12/12 00:36:08;;;;;;;2.13;1.40;;;22.60;73.60;;;;;;6214911;28;94100;-60
2023/12/12 00:39:10;;;;;;;3.95;2.00;;;22.70;73.60;;;;;;6211817;28;95088;-60
2023/12/12 00:42:12;;;;;;;3.70;1.73;;;22.60;73.50;;;;;;6207981;28;94076;-60
2023/12/12 00:45:14;;;;;;;2.78;1.75;;;22.60;73.40;;;;;;6220177;28;94089;-61
2023/12/12 00:48:18;;;;;;;1.77;1.40;;;22.60;73.30;;;;;;6229138;28;94040;-62
2023/12/12 00:51:20;;;;;;;2.80;1.63;;;22.60;73.50;;;;;;6204577;28;94151;-60
2023/12/12 00:54:22;;;;;;;6.40;2.53;;;22.60;73.40;;;;;;6198465;28;94470;-60
2023/12/12 00:57:24;;;;;;;2.90;1.70;;;22.60;74.40;;;;;;6214941;28;94240;-60
2023/12/12 01:00:26;;;;;;;3.72;1.70;;;22.60;73.50;;;;;;6219648;28;93525;-60
2023/12/12 01:03:29;;;;;;;1.77;1.38;;;22.60;73.40;;;;;;6218419;28;92972;-60
2023/12/12 01:06:31;;;;;;;4.55;2.13;;;22.60;73.40;;;;;;6215454;28;94169;-60
2023/12/12 01:09:33;;;;;;;5.45;2.30;;;22.60;73.30;;;;;;6218135;28;95034;-60
2023/12/12 01:12:36;;;;;;;1.80;1.42;;;22.50;73.30;;;;;;6218207;28;94586;-60
2023/12/12 01:15:39;;;;;;;3.50;1.70;;;22.50;73.30;;;;;;6216674;28;94231;-60
2023/12/12 01:18:42;;;;;;;3.33;1.77;;;22.50;73.30;;;;;;6218873;28;94192;-60
2023/12/12 01:21:44;;;;;;;2.38;1.42;;;22.50;73.30;;;;;;6224030;28;94519;-61
2023/12/12 01:24:46;;;;;;;6.07;2.40;;;22.50;73.30;;;;;;6214844;28;94149;-60
2023/12/12 01:27:48;;;;;;;3.10;1.80;;;22.50;72.70;;;;;;6214182;28;94500;-60
2023/12/12 01:30:51;;;;;;;5.07;2.22;;;22.50;72.50;;;;;;6222664;28;93531;-60
2023/12/12 01:33:54;;;;;;;2.30;1.55;;;22.40;72.60;;;;;;6216085;28;94037;-61
2023/12/12 01:36:56;;;;;;;3.45;1.75;;;22.40;72.70;;;;;;6215945;28;94240;-60
2023/12/12 01:39:58;;;;;;;2.60;1.73;;;22.40;72.70;;;;;;6225281;28;95399;-61
2023/12/12 01:43:06;;;;;;;3.20;1.92;;;22.40;72.80;;;;;;6204706;28;93969;-61
2023/12/12 01:46:12;;;;;;;4.10;2.22;;;22.40;72.80;;;;;;6226697;28;94143;-60
2023/12/12 01:49:16;;;;;;;3.92;2.22;;;22.40;72.80;;;;;;6209009;28;94154;-60
2023/12/12 01:52:19;;;;;;;3.47;2.40;;;22.40;72.80;;;;;;6216718;28;94157;-61
2023/12/12 01:55:21;;;;;;;3.10;2.20;;;22.40;73.00;;;;;;6207383;28;93976;-61
2023/12/12 01:58:26;;;;;;;3.38;2.38;;;22.30;72.90;;;;;;6229313;28;94252;-61
2023/12/12 02:01:28;;;;;;;3.38;2.30;;;22.40;72.90;;;;;;6225248;28;93852;-61
2023/12/12 02:04:32;;;;;;;3.72;2.35;;;22.40;72.80;;;;;;6227599;28;94082;-61
2023/12/12 02:07:36;;;;;;;2.40;1.95;;;22.40;72.80;;;;;;6194982;28;93019;-61
2023/12/12 02:10:39;;;;;;;3.10;2.47;;;22.30;72.70;;;;;;6221413;28;94957;-61
2023/12/12 02:13:41;;;;;;;2.80;2.30;;;22.40;72.80;;;;;;6226799;28;94199;-61
2023/12/12 02:16:43;;;;;;;6.10;3.35;;;22.40;72.80;;;;;;6220152;28;92938;-61
2023/12/12 02:19:46;;;;;;;5.32;2.85;;;22.40;72.80;;;;;;6218317;28;94057;-61
2023/12/12 02:22:49;;;;;;;4.30;2.75;;;22.40;72.70;;;;;;6218483;28;94199;-61
2023/12/12 02:25:51;;;;;;;4.00;2.55;;;22.40;72.70;;;;;;6210694;28;94025;-62
2023/12/12 02:28:53;;;;;;;4.05;2.60;;;22.40;72.70;;;;;;6208116;28;92994;-61
2023/12/12 02:31:55;;;;;;;3.40;2.70;;;22.40;72.70;;;;;;6205824;28;93291;-61
2023/12/12 02:34:57;;;;;;;3.72;2.50;;;22.30;72.70;;;;;;6208186;28;94075;-61
2023/12/12 02:38:01;;;;;;;3.78;2.90;;;22.30;72.60;;;;;;6214094;28;94616;-61
2023/12/12 02:41:03;;;;;;;3.88;2.95;;;22.40;72.70;;;;;;6217576;28;95086;-61
2023/12/12 02:44:06;;;;;;;8.38;4.20;;;22.30;72.70;;;;;;6216508;28;94227;-61
2023/12/12 02:47:08;;;;;;;4.32;2.85;;;22.30;72.70;;;;;;6201916;28;94482;-61
2023/12/12 02:50:10;;;;;;;4.82;3.10;;;22.30;72.60;;;;;;6225338;28;94243;-61
2023/12/12 02:53:13;;;;;;;4.45;3.30;;;22.30;72.50;;;;;;6203688;28;94408;-61
2023/12/12 02:56:15;;;;;;;3.75;2.97;;;22.30;72.50;;;;;;6213768;28;94110;-62
2023/12/12 02:59:17;;;;;;;4.30;3.05;;;22.30;72.50;;;;;;6214908;28;94168;-61
2023/12/12 03:02:19;;;;;;;3.33;2.90;;;22.40;72.60;;;;;;6213510;28;93454;-61
2023/12/12 03:05:21;;;;;;;3.83;2.95;;;22.30;72.50;;;;;;6223915;28;94205;-62
2023/12/12 03:08:25;;;;;;;5.72;3.60;;;22.30;72.50;;;;;;6229511;28;93966;-61
2023/12/12 03:11:27;;;;;;;7.07;3.55;;;22.30;72.50;;;;;;6216273;28;94296;-61
2023/12/12 03:14:29;;;;;;;5.45;3.45;;;22.30;72.50;;;;;;6227156;28;94433;-61
2023/12/12 03:17:31;;;;;;;4.32;3.22;;;22.30;72.40;;;;;;6241023;28;94698;-61
2023/12/12 03:20:33;;;;;;;4.55;3.28;;;22.30;72.50;;;;;;6237463;28;94335;-61
2023/12/12 03:23:36;;;;;;;4.45;3.00;;;22.30;72.40;;;;;;6218893;28;94177;-62
2023/12/12 03:26:38;;;;;;;3.90;3.05;;;22.30;72.50;;;;;;6215720;28;94066;-62
2023/12/12 03:29:40;;;;;;;4.25;2.90;;;22.30;73.30;;;;;;6214636;28;94539;-61
2023/12/12 03:32:42;;;;;;;4.60;3.13;;;22.20;72.40;;;;;;6212252;28;92872;-61
2023/12/12 03:35:44;;;;;;;3.90;3.15;;;22.20;72.30;;;;;;6226612;28;94180;-61
2023/12/12 03:38:48;;;;;;;5.68;3.58;;;22.20;72.30;;;;;;6226118;28;94097;-62
2023/12/12 03:41:50;;;;;;;8.18;4.07;;;22.30;72.30;;;;;;6217807;28;94044;-61
2023/12/12 03:44:52;;;;;;;4.32;2.97;;;22.20;72.30;;;;;;6223347;28;94173;-61
2023/12/12 03:47:53;;;;;;;3.58;3.03;;;22.20;72.30;;;;;;6218690;28;94055;-61
2023/12/12 03:50:55;;;;;;;4.30;3.28;;;22.20;72.30;;;;;;6225228;28;94129;-61
2023/12/12 03:53:59;;;;;;;3.72;3.10;;;22.20;72.30;;;;;;6213253;28;93032;-61
2023/12/12 03:57:01;;;;;;;5.50;3.63;;;22.20;72.30;;;;;;6205288;28;93397;-61
2023/12/12 04:00:06;;;;;;;6.70;3.95;;;22.20;72.30;;;;;;6217867;28;94118;-62
2023/12/12 04:03:08;;;;;;;3.83;3.20;;;22.20;72.30;;;;;;6219855;28;93515;-61
2023/12/12 04:06:10;;;;;;;4.10;3.20;;;22.20;72.30;;;;;;6225419;28;94168;-61
2023/12/12 04:09:14;;;;;;;8.10;4.30;;;22.20;72.30;;;;;;6214114;28;94412;-61
2023/12/12 04:12:16;;;;;;;4.32;3.30;;;22.10;72.30;;;;;;6216204;28;95034;-61
2023/12/12 04:15:17;;;;;;;4.10;3.03;;;22.10;72.30;;;;;;6219743;28;94069;-62
2023/12/12 04:18:19;;;;;;;5.85;3.30;;;22.10;72.30;;;;;;6221801;28;94026;-62
2023/12/12 04:21:21;;;;;;;4.45;3.17;;;22.10;72.40;;;;;;6216692;28;94198;-61
2023/12/12 04:24:25;;;;;;;3.92;3.08;;;22.10;72.30;;;;;;6221904;28;94071;-61
2023/12/12 04:27:27;;;;;;;3.40;2.83;;;22.10;72.40;;;;;;6228470;28;94452;-61
2023/12/12 04:30:29;;;;;;;3.83;3.30;;;22.10;72.40;;;;;;6226070;28;93147;-61
2023/12/12 04:33:30;;;;;;;5.95;3.55;;;22.10;72.40;;;;;;6225802;28;93463;-61
2023/12/12 04:36:33;;;;;;;4.50;3.33;;;22.10;72.50;;;;;;6216476;28;94059;-61
2023/12/12 04:39:36;;;;;;;4.25;3.20;;;22.10;72.50;;;;;;6205697;28;94063;-61
2023/12/12 04:42:38;;;;;;;4.30;3.30;;;22.00;72.40;;;;;;6226973;28;95308;-61
2023/12/12 04:45:40;;;;;;;4.00;3.15;;;22.00;72.40;;;;;;6231374;28;94069;-61
2023/12/12 04:48:42;;;;;;;4.07;3.28;;;22.10;72.50;;;;;;6211381;28;94130;-61
2023/12/12 04:51:44;;;;;;;4.13;2.83;;;22.00;72.40;;;;;;6230168;28;94121;-61
2023/12/12 04:54:47;;;;;;;3.78;2.95;;;22.00;73.30;;;;;;6237645;28;94147;-61
2023/12/12 04:57:49;;;;;;;5.93;3.60;;;22.00;72.50;;;;;;6248798;28;94244;-61
2023/12/12 05:00:51;;;;;;;4.55;3.35;;;22.00;72.40;;;;;;6231197;28;94192;-61
2023/12/12 05:03:53;;;;;;;4.95;3.40;;;22.00;72.40;;;;;;6215059;28;93266;-61
2023/12/12 05:06:55;;;;;;;4.97;3.50;;;22.00;72.40;;;;;;6220670;28;94085;-61
2023/12/12 05:09:58;;;;;;;9.18;4.53;;;22.00;72.40;;;;;;6218249;28;94161;-61
2023/12/12 05:13:01;;;;;;;3.80;2.90;;;22.00;72.40;;;;;;6213659;28;95413;-61
2023/12/12 05:16:03;;;;;;;3.53;3.05;;;22.00;72.50;;;;;;6207201;28;95083;-61
2023/12/12 05:19:05;;;;;;;3.38;2.90;;;22.00;72.40;;;;;;6230197;28;94064;-61
2023/12/12 05:22:07;;;;;;;3.53;2.92;;;22.00;72.40;;;;;;6212518;28;94087;-62
2023/12/12 05:25:11;;;;;;;6.03;3.85;;;22.00;72.40;;;;;;6215669;28;93169;-61
2023/12/12 05:28:16;;;;;;;4.85;3.13;;;22.00;72.40;;;;;;6204234;28;94117;-62
2023/12/12 05:31:18;;;;;;;3.78;3.00;;;22.00;72.50;;;;;;6222581;28;94169;-61
2023/12/12 05:34:20;;;;;;;5.13;3.33;;;22.00;72.40;;;;;;6208846;28;92257;-62
2023/12/12 05:37:22;;;;;;;4.53;3.10;;;22.00;72.40;;;;;;6224133;28;94122;-62
2023/12/12 05:40:26;;;;;;;3.42;3.03;;;22.00;72.40;;;;;;6208183;28;94703;-61
2023/12/12 05:43:27;;;;;;;4.88;3.47;;;22.00;72.30;;;;;;6226741;28;95037;-61
2023/12/12 05:46:29;;;;;;;3.35;2.80;;;22.00;72.30;;;;;;6215496;28;94115;-61
2023/12/12 05:49:31;;;;;;;3.58;2.90;;;22.00;72.20;;;;;;6213306;28;94171;-61
2023/12/12 05:52:34;;;;;;;3.63;2.70;;;22.00;72.20;;;;;;6214492;28;93771;-61
2023/12/12 05:55:38;;;;;;;3.90;2.70;;;22.00;72.10;;;;;;6206367;28;94054;-61
2023/12/12 05:58:40;;;;;;;4.53;3.08;;;22.00;71.70;;;;;;6203585;28;93994;-61
2023/12/12 06:01:42;;;;;;;6.55;3.28;;;22.00;71.70;;;;;;6218816;28;94013;-62
2023/12/12 06:04:46;;;;;;;5.50;3.25;;;22.00;72.20;;;;;;6223763;28;93537;-61
2023/12/12 06:07:48;;;;;;;3.80;2.90;;;22.10;72.20;;;;;;6212614;28;96271;-61
2023/12/12 06:10:51;;;;;;;4.25;2.95;;;22.00;72.20;;;;;;6218333;28;94696;-60
2023/12/12 06:13:53;;;;;;;3.28;2.80;;;22.00;72.30;;;;;;6210364;28;94977;-60
2023/12/12 06:16:55;;;;;;;3.33;2.60;;;22.10;72.50;;;;;;6223557;28;94006;-61
2023/12/12 06:19:57;;;;;;;3.75;2.83;;;22.10;73.00;;;;;;6225583;28;94083;-61
2023/12/12 06:22:59;;;;;;;4.07;3.00;;;22.10;73.20;;;;;;6217450;28;94071;-61
2023/12/12 06:26:03;;;;;;;4.53;2.85;;;22.10;73.40;;;;;;6211626;28;94111;-61
2023/12/12 06:29:07;;;;;;;6.00;3.45;;;22.10;73.50;;;;;;6204155;28;94084;-61
2023/12/12 06:32:09;;;;;;;4.35;3.00;;;22.10;73.50;;;;;;6220300;28;93936;-62
2023/12/12 06:35:11;;;;;;;4.40;2.90;;;22.10;74.00;;;;;;6221606;28;93342;-62
2023/12/12 06:38:13;;;;;;;4.22;2.70;;;22.10;73.30;;;;;;6219678;28;95608;-63
2023/12/12 06:41:16;;;;;;;4.10;3.15;;;22.10;72.10;;;;;;6215663;28;93348;-64
2023/12/12 06:44:19;;;;;;;4.10;2.67;;;22.10;72.20;;;;;;6226979;28;95099;-64
2023/12/12 06:47:21;;;;;;;4.15;2.55;;;22.10;72.30;;;;;;6203632;28;93010;-64
2023/12/12 06:50:23;;;;;;;3.40;2.53;;;22.10;72.30;;;;;;6218389;28;94044;-64
2023/12/12 06:53:25;;;;;;;4.38;2.80;;;22.10;72.00;;;;;;6212627;28;94284;-64
2023/12/12 06:56:28;;;;;;;4.50;2.92;;;22.10;71.90;;;;;;6222356;28;94047;-64
2023/12/12 06:59:30;;;;;;;6.57;3.70;;;22.10;72.00;;;;;;6218271;28;94232;-64
2023/12/12 07:02:32;;;;;;;6.88;3.60;;;22.10;72.30;;;;;;6213633;28;94077;-64
2023/12/12 07:05:34;;;;;;;8.95;4.45;;;22.10;72.70;;;;;;6214969;28;93387;-64
2023/12/12 07:08:36;;;;;;;11.25;4.88;;;22.10;73.00;;;;;;6214062;28;94148;-64
2023/12/12 07:11:40;;;;;;;11.75;5.32;;;22.10;73.30;;;;;;6215957;28;92931;-64
2023/12/12 07:14:42;;;;;;;14.38;5.30;;;22.10;73.50;;;;;;6215010;28;95923;-64
2023/12/12 07:17:43;;;;;;;14.23;6.03;;;22.10;73.90;;;;;;6205733;28;94115;-64
2023/12/12 07:20:46;;;;;;;14.88;6.20;;;22.10;74.20;;;;;;6229240;28;94104;-64
2023/12/12 07:23:50;;;;;;;11.23;5.13;;;22.10;74.40;;;;;;6222371;28;94172;-64
2023/12/12 07:26:53;;;;;;;9.15;4.53;;;22.10;74.20;;;;;;6224582;28;93152;-64
2023/12/12 07:29:55;;;;;;;9.88;4.60;;;22.10;74.10;;;;;;6214159;28;94077;-64
2023/12/12 07:32:57;;;;;;;8.20;4.32;;;22.10;74.00;;;;;;6211040;28;94150;-64
2023/12/12 07:35:59;;;;;;;14.98;6.00;;;22.10;73.80;;;;;;6226907;28;93350;-65
2023/12/12 07:39:02;;;;;;;19.08;6.20;;;22.10;74.00;;;;;;6230914;28;94486;-64
2023/12/12 07:42:06;;;;;;;25.20;8.52;;;22.10;74.40;;;;;;6226430;28;94136;-64
2023/12/12 07:45:09;;;;;;;28.05;10.23;;;22.10;75.20;;;;;;6221170;28;95070;-64
2023/12/12 07:48:11;;;;;;;26.02;9.85;;;22.10;76.10;;;;;;6239444;28;94200;-64
2023/12/12 07:51:13;;;;;;;20.08;8.35;;;22.10;76.80;;;;;;6234755;28;94230;-64
2023/12/12 07:54:15;;;;;;;18.42;6.95;;;22.10;76.90;;;;;;6227005;28;94256;-64
2023/12/12 07:57:18;;;;;;;15.45;6.72;;;22.10;76.60;;;;;;6224759;28;94074;-65
2023/12/12 08:00:20;;;;;;;16.98;7.55;;;22.10;76.40;;;;;;6222649;28;94197;-64
2023/12/12 08:03:22;;;;;;;16.25;6.80;;;22.10;76.40;;;;;;6216269;28;94487;-64
2023/12/12 08:06:24;;;;;;;10.00;5.40;;;22.10;76.20;;;;;;6230161;28;93678;-65
2023/12/12 08:09:28;;;;;;;10.38;5.07;;;22.10;76.10;;;;;;6215151;28;94138;-64
2023/12/12 08:12:32;;;;;;;8.93;4.78;;;22.10;75.90;;;;;;6226403;28;94033;-64
2023/12/12 08:15:34;;;;;;;8.48;4.65;;;22.10;75.80;;;;;;6224803;28;95512;-64
2023/12/12 08:18:37;;;;;;;10.00;4.72;;;22.20;75.80;;;;;;6233218;28;94315;-64
2023/12/12 08:21:40;;;;;;;7.85;4.32;;;22.20;75.70;;;;;;6215831;28;94200;-64
2023/12/12 08:24:43;;;;;;;7.50;3.85;;;22.20;75.20;;;;;;6239513;28;94142;-64
2023/12/12 08:27:47;;;;;;;7.47;3.90;;;22.20;74.40;;;;;;6223713;28;94158;-65
2023/12/12 08:30:49;;;;;;;6.88;3.88;;;22.20;77.70;;;;;;6217419;28;94095;-64
2023/12/12 08:33:51;;;;;;;10.38;4.10;;;22.30;82.90;;;;;;6199392;28;92895;-64
2023/12/12 08:36:53;;;;;;;7.85;3.95;;;22.40;80.80;;;;;;6219739;28;93342;-64
2023/12/12 08:39:55;;;;;;;9.68;3.85;;;22.50;79.30;;;;;;6215337;28;94100;-64
2023/12/12 08:42:58;;;;;;;11.15;4.13;;;22.60;78.40;;;;;;6216576;28;93063;-64
2023/12/12 08:46:01;;;;;;;11.02;4.50;;;22.60;77.40;;;;;;6216107;28;95156;-64
2023/12/12 08:49:03;;;;;;;7.80;3.60;;;22.70;77.10;;;;;;6230956;28;94189;-64
2023/12/12 08:52:07;;;;;;;6.88;3.65;;;22.70;76.70;;;;;;6227370;28;94126;-64
2023/12/12 08:55:10;;;;;;;7.82;3.67;;;22.70;76.40;;;;;;6230713;28;94133;-64
2023/12/12 08:58:14;;;;;;;8.00;3.70;;;22.70;76.20;;;;;;6218027;28;94186;-64
2023/12/12 09:01:16;;;;;;;7.28;3.72;;;22.60;76.20;;;;;;6232290;28;94500;-64
2023/12/12 09:04:18;;;;;;;6.72;3.67;;;22.70;76.10;;;;;;6220816;28;94194;-65
2023/12/12 09:07:20;;;;;;;8.98;4.03;;;22.60;75.90;;;;;;6223773;28;93463;-65
2023/12/12 09:10:22;;;;;;;7.80;3.70;;;22.60;75.90;;;;;;6238340;28;94507;-65
2023/12/12 09:13:25;;;;;;;7.57;4.03;;;22.60;75.80;;;;;;6216382;28;94095;-65
2023/12/12 09:16:27;;;;;;;6.25;3.72;;;22.50;75.70;;;;;;6217601;28;95023;-65
2023/12/12 09:19:29;;;;;;;8.93;4.18;;;22.50;75.60;;;;;;6214222;28;94264;-64
2023/12/12 09:22:31;;;;;;;7.40;3.92;;;22.50;75.60;;;;;;6224151;28;94189;-65
2023/12/12 09:25:33;;;;;;;8.80;4.13;;;22.50;75.60;;;;;;6236928;28;94457;-64
2023/12/12 09:28:37;;;;;;;7.65;4.15;;;22.50;75.60;;;;;;6216447;28;94253;-65
2023/12/12 09:31:39;;;;;;;7.80;3.75;;;22.50;75.60;;;;;;6230306;28;94272;-64
2023/12/12 09:34:41;;;;;;;7.00;3.90;;;22.50;75.50;;;;;;6215063;28;93017;-64
2023/12/12 09:37:43;;;;;;;5.90;3.45;;;22.40;75.40;;;;;;6217588;28;93421;-64
2023/12/12 09:40:45;;;;;;;6.95;4.10;;;22.50;75.50;;;;;;6219880;28;94221;-64
2023/12/12 09:43:49;;;;;;;7.22;3.95;;;22.50;75.70;;;;;;6233129;28;92928;-65
2023/12/12 09:46:52;;;;;;;7.95;4.00;;;22.50;75.60;;;;;;6226519;28;95085;-64
2023/12/12 09:49:55;;;;;;;8.23;4.15;;;22.40;75.40;;;;;;6214990;28;94136;-64
2023/12/12 09:53:00;;;;;;;8.75;5.00;;;22.50;75.50;;;;;;6215145;28;93286;-65
2023/12/12 09:56:03;;;;;;;8.10;5.10;;;22.40;75.40;;;;;;6236750;28;95959;-65
2023/12/12 09:59:07;;;;;;;6.57;5.13;;;22.40;75.50;;;;;;6252049;28;94016;-65
2023/12/12 10:02:12;;;;;;;8.80;6.32;;;22.40;75.50;;;;;;6219499;28;94388;-65
2023/12/12 10:05:16;;;;;;;10.35;7.47;;;22.40;75.50;;;;;;6205802;28;94220;-65
2023/12/12 10:08:18;;;;;;;10.85;7.68;;;22.40;76.50;;;;;;6213972;28;93719;-65
2023/12/12 10:11:20;;;;;;;11.85;8.57;;;22.40;75.50;;;;;;6216865;28;94048;-65
2023/12/12 10:14:44;;;;;;;13.20;9.35;;;22.40;75.40;;;;;;6205885;28;94114;-64
2023/12/12 10:17:46;;;;;;;14.90;10.88;;;22.40;75.40;;;;;;6219842;28;95101;-64
2023/12/12 10:20:48;;;;;;;16.75;11.70;;;22.40;75.20;;;;;;6214778;28;94070;-65
2023/12/12 10:23:51;;;;;;;16.08;11.90;;;22.40;75.20;;;;;;6213831;28;94116;-65
2023/12/12 10:26:53;;;;;;;19.83;14.02;;;22.40;75.10;;;;;;6217599;28;92888;-64
2023/12/12 10:29:56;;;;;;;20.80;14.63;;;22.40;75.30;;;;;;6224472;28;94146;-64
2023/12/12 10:32:58;;;;;;;19.98;15.57;;;22.40;75.40;;;;;;6205398;28;94166;-64
2023/12/12 10:36:03;;;;;;;24.02;17.65;;;22.40;75.50;;;;;;6218784;28;95442;-64
2023/12/12 10:39:12;;;;;;;21.25;16.80;;;22.40;75.50;;;;;;6229882;28;93564;-64
2023/12/12 10:42:15;;;;;;;22.60;18.38;;;22.40;75.40;;;;;;6220498;28;94390;-64
2023/12/12 10:45:20;;;;;;;22.42;18.60;;;22.50;75.30;;;;;;6220936;28;94502;-64
2023/12/12 10:48:24;;;;;;;23.60;19.20;;;22.50;75.20;;;;;;6221068;28;95092;-64
2023/12/12 10:51:27;;;;;;;25.92;20.25;;;22.50;75.20;;;;;;6225157;28;94022;-64
2023/12/12 10:54:31;;;;;;;25.08;20.02;;;22.50;75.10;;;;;;6234064;28;94476;-64
2023/12/12 10:57:33;;;;;;;27.42;21.48;;;22.50;75.00;;;;;;6215164;28;94064;-64
2023/12/12 11:00:37;;;;;;;28.08;21.42;;;22.50;75.00;;;;;;6208360;28;93825;-64
2023/12/12 11:03:40;;;;;;;28.10;21.80;;;22.50;74.90;;;;;;6206958;28;94095;-65
2023/12/12 11:06:43;;;;;;;29.33;23.73;;;22.50;75.00;;;;;;6217408;28;94205;-64
2023/12/12 11:09:45;;;;;;;31.67;23.05;;;22.50;75.00;;;;;;6227730;28;93235;-64
2023/12/12 11:12:50;;;;;;;30.20;23.77;;;22.50;74.90;;;;;;6236062;28;94257;-65
2023/12/12 11:15:54;;;;;;;29.40;23.30;;;22.50;74.90;;;;;;6226635;28;93249;-64
2023/12/12 11:18:57;;;;;;;29.48;23.92;;;22.50;75.00;;;;;;6212912;28;96638;-64
2023/12/12 11:21:59;;;;;;;29.40;23.55;;;22.50;74.90;;;;;;6224577;28;94157;-65
2023/12/12 11:25:07;;;;;;;28.63;23.55;;;22.50;74.90;;;;;;6218000;28;94108;-65
2023/12/12 11:28:09;;;;;;;30.55;24.23;;;22.50;74.90;;;;;;6222110;28;94119;-64
2023/12/12 11:31:20;;;;;;;31.55;24.95;;;22.50;75.00;;;;;;6208278;28;94572;-64
2023/12/12 11:34:24;;;;;;;32.78;25.45;;;22.50;74.90;;;;;;6216306;28;94669;-65
2023/12/12 11:37:40;;;;;;;32.90;26.60;;;22.50;74.90;;;;;;6222396;28;94150;-64
2023/12/12 11:40:42;;;;;;;31.13;25.77;;;22.50;74.90;;;;;;6213707;28;93587;-65
2023/12/12 11:43:45;;;;;;;31.10;25.77;;;22.50;74.90;;;;;;6213350;28;94083;-64
2023/12/12 11:46:48;;;;;;;33.28;25.92;;;22.50;74.80;;;;;;6208863;28;94298;-64
2023/12/12 11:49:50;;;;;;;34.97;28.10;;;22.50;74.80;;;;;;6242082;28;95024;-64
2023/12/12 11:52:53;;;;;;;34.17;27.40;;;22.50;74.90;;;;;;6229281;28;94286;-64
2023/12/12 11:56:01;;;;;;;34.75;27.00;;;22.50;75.70;;;;;;6230951;28;94252;-64
2023/12/12 11:59:03;;;;;;;32.63;27.20;;;22.50;74.80;;;;;;6230215;28;94158;-65
2023/12/12 12:02:06;;;;;;;35.05;28.60;;;22.50;74.80;;;;;;6212649;28;94601;-65
2023/12/12 12:05:09;;;;;;;34.17;28.10;;;22.50;74.80;;;;;;6220839;28;94533;-65
2023/12/12 12:08:11;;;;;;;37.10;28.92;;;22.60;74.80;;;;;;6241526;28;94073;-64
2023/12/12 12:11:13;;;;;;;35.63;28.55;;;22.50;74.70;;;;;;6242017;28;92322;-65
2023/12/12 12:14:17;;;;;;;36.15;29.30;;;22.50;74.70;;;;;;6230028;28;94147;-65
2023/12/12 12:17:20;;;;;;;36.58;29.10;;;22.60;74.80;;;;;;6230729;28;94166;-64
2023/12/12 12:20:22;;;;;;;36.65;29.63;;;22.50;74.70;;;;;;6225377;28;95051;-65
2023/12/12 12:23:24;;;;;;;35.10;29.50;;;22.60;74.70;;;;;;6214885;28;94048;-65
2023/12/12 12:26:26;;;;;;;37.97;30.55;;;22.60;74.70;;;;;;6229647;28;94300;-65
2023/12/12 12:29:28;;;;;;;34.08;28.88;;;22.50;74.60;;;;;;6228733;28;94055;-65
2023/12/12 12:32:32;;;;;;;34.78;30.05;;;22.60;74.70;;;;;;6228304;28;94393;-65
2023/12/12 12:35:34;;;;;;;36.67;30.17;;;22.60;74.70;;;;;;6230208;28;94137;-65
2023/12/12 12:38:36;;;;;;;35.88;30.55;;;22.60;74.70;;;;;;6232134;28;94168;-64
2023/12/12 12:41:39;;;;;;;38.83;31.10;;;22.60;74.70;;;;;;6218088;28;93848;-65
2023/12/12 12:44:42;;;;;;;39.88;32.05;;;22.50;74.50;;;;;;6227463;28;94125;-64
2023/12/12 12:47:45;;;;;;;37.65;30.45;;;22.60;74.70;;;;;;6227872;28;94122;-65
2023/12/12 12:50:49;;;;;;;35.63;30.13;;;22.60;74.70;;;;;;6226829;28;95183;-64
2023/12/12 12:53:51;;;;;;;37.30;30.67;;;22.60;74.70;;;;;;6250143;28;94279;-64
2023/12/12 12:56:53;;;;;;;38.30;31.08;;;22.60;74.70;;;;;;6243837;28;94018;-65
2023/12/12 12:59:55;;;;;;;35.83;30.23;;;22.50;74.70;;;;;;6240772;28;94045;-64
2023/12/12 13:02:58;;;;;;;36.33;31.33;;;22.60;74.70;;;;;;6223183;28;94320;-64
2023/12/12 13:06:00;;;;;;;36.30;31.35;;;22.60;74.60;;;;;;6216474;28;94099;-65
2023/12/12 13:09:04;;;;;;;38.05;31.45;;;22.60;74.70;;;;;;6238678;28;94067;-65
2023/12/12 13:12:06;;;;;;;33.45;29.00;;;22.60;74.70;;;;;;6240918;28;94348;-65
2023/12/12 13:15:10;;;;;;;35.17;30.60;;;22.50;74.60;;;;;;6220704;28;93017;-64
2023/12/12 13:18:14;;;;;;;36.05;30.88;;;22.50;74.50;;;;;;6215739;28;94119;-64
2023/12/12 13:21:16;;;;;;;34.22;30.08;;;22.60;74.60;;;;;;6201667;28;95180;-64
2023/12/12 13:24:18;;;;;;;37.65;30.75;;;22.50;74.50;;;;;;6203684;28;94220;-65
2023/12/12 13:27:20;;;;;;;33.83;29.50;;;22.50;74.50;;;;;;6236385;28;94219;-65
2023/12/12 13:30:22;;;;;;;33.67;30.00;;;22.60;74.60;;;;;;6235089;28;94214;-64
2023/12/12 13:33:26;;;;;;;32.95;29.35;;;22.50;74.70;;;;;;6214609;28;94188;-65
2023/12/12 13:36:28;;;;;;;33.33;28.88;;;22.50;74.60;;;;;;6222945;28;92884;-64
2023/12/12 13:39:30;;;;;;;32.60;28.95;;;22.50;74.50;;;;;;6210292;28;94511;-64
2023/12/12 13:42:32;;;;;;;32.35;28.58;;;22.50;74.50;;;;;;6215070;28;93316;-64
2023/12/12 13:45:36;;;;;;;34.13;28.60;;;22.50;74.50;;;;;;6217381;28;94130;-64
2023/12/12 13:48:39;;;;;;;31.67;28.15;;;22.50;74.40;;;;;;6203268;28;94100;-64
2023/12/12 13:51:41;;;;;;;33.38;28.83;;;22.50;74.40;;;;;;6209331;28;95602;-64
2023/12/12 13:54:43;;;;;;;32.28;27.85;;;22.50;74.40;;;;;;6226980;28;94102;-64
2023/12/12 13:57:45;;;;;;;36.58;29.02;;;22.50;74.40;;;;;;6210466;28;94139;-64
2023/12/12 14:00:47;;;;;;;32.17;28.52;;;22.50;74.40;;;;;;6216042;28;94130;-64
2023/12/12 14:03:50;;;;;;;31.02;27.52;;;22.50;74.40;;;;;;6213361;28;94156;-64
2023/12/12 14:06:52;;;;;;;30.38;27.17;;;22.50;74.40;;;;;;6226615;28;94254;-64
2023/12/12 14:09:54;;;;;;;30.50;27.20;;;22.50;74.40;;;;;;6226661;28;94108;-64
2023/12/12 14:13:00;;;;;;;33.67;26.90;;;22.50;74.40;;;;;;6213823;28;92209;-64
2023/12/12 14:16:02;;;;;;;29.92;25.98;;;22.50;74.40;;;;;;6203809;28;94707;-64
2023/12/12 14:19:07;;;;;;;29.88;26.42;;;22.50;74.40;;;;;;6212838;28;94503;-64
2023/12/12 14:22:09;;;;;;;29.35;26.13;;;22.50;74.30;;;;;;6225614;28;95086;-64
2023/12/12 14:25:11;;;;;;;29.48;26.27;;;22.50;74.40;;;;;;6214445;28;94201;-64
2023/12/12 14:28:13;;;;;;;30.15;26.05;;;22.50;75.20;;;;;;6226662;28;94017;-64
2023/12/12 14:31:16;;;;;;;30.08;25.67;;;22.50;74.30;;;;;;6223347;28;94056;-64
2023/12/12 14:34:19;;;;;;;28.70;25.60;;;22.50;74.30;;;;;;6213385;28;94162;-64
2023/12/12 14:37:21;;;;;;;28.00;25.00;;;22.50;74.30;;;;;;6212542;28;94209;-64
2023/12/12 14:40:23;;;;;;;28.17;24.65;;;22.50;74.30;;;;;;6206288;28;94073;-64
2023/12/12 14:43:25;;;;;;;27.75;24.60;;;22.50;74.30;;;;;;6229641;28;93383;-64
2023/12/12 14:46:27;;;;;;;31.10;25.40;;;22.50;74.30;;;;;;6224120;28;94109;-64
2023/12/12 14:49:31;;;;;;;28.17;24.23;;;22.50;74.30;;;;;;6222502;28;94381;-64
2023/12/12 14:52:33;;;;;;;26.15;23.15;;;22.50;74.40;;;;;;6215941;28;95538;-64
2023/12/12 14:55:35;;;;;;;25.75;22.98;;;22.60;74.40;;;;;;6220098;28;94348;-64
2023/12/12 14:58:36;;;;;;;26.83;23.92;;;22.50;74.30;;;;;;6227025;28;94165;-64
2023/12/12 15:01:38;;;;;;;25.52;22.70;;;22.50;74.20;;;;;;6215118;28;94105;-64
2023/12/12 15:04:42;;;;;;;24.95;22.20;;;22.50;74.30;;;;;;6214045;28;94202;-64
2023/12/12 15:07:44;;;;;;;25.50;22.70;;;22.50;74.30;;;;;;6224417;28;94068;-64
2023/12/12 15:10:46;;;;;;;24.50;21.85;;;22.50;74.20;;;;;;6204997;28;94156;-64
2023/12/12 15:13:48;;;;;;;24.63;22.02;;;22.60;74.30;;;;;;6219202;28;93334;-65
2023/12/12 15:16:50;;;;;;;23.92;21.42;;;22.60;74.50;;;;;;6205893;28;94095;-65
2023/12/12 15:19:53;;;;;;;23.38;20.90;;;22.60;74.20;;;;;;6212574;28;94175;-64
2023/12/12 15:22:57;;;;;;;23.73;21.13;;;22.70;74.20;;;;;;6228928;28;95093;-65
2023/12/12 15:25:59;;;;;;;21.80;19.60;;;22.70;74.10;;;;;;6236447;28;94094;-65
2023/12/12 15:29:01;;;;;;;22.42;19.98;;;22.70;74.00;;;;;;6228172;28;94131;-65
2023/12/12 15:32:03;;;;;;;23.23;20.83;;;22.80;73.90;;;;;;6204017;28;94107;-64
2023/12/12 15:35:08;;;;;;;22.65;20.25;;;22.70;73.70;;;;;;6226544;28;95877;-64
2023/12/12 15:38:10;;;;;;;22.13;19.75;;;22.80;73.70;;;;;;6229189;28;94117;-64
2023/12/12 15:41:12;;;;;;;21.27;19.08;;;22.80;73.60;;;;;;6216746;28;94734;-64